sensor_id;sensor_type;location;lat;lon;timestamp;P1;durP1;ratioP1;P2;durP2;ratioP2
74170;SDS011;62526;50.948;6.590;2023-04-06T00:01:28;18.13;;;10.33;;
74170;SDS011;62526;50.948;6.590;2023-04-06T00:03:55;17.37;;;9.53;;
74170;SDS011;62526;50.948;6.590;2023-04-06T00:06:21;25.80;;;10.47;;
74170;SDS011;62526;50.948;6.590;2023-04-06T00:08:48;19.47;;;10.67;;
74170;SDS011;62526;50.948;6.590;2023-04-06T00:11:14;22.67;;;9.73;;
74170;SDS011;62526;50.948;6.590;2023-04-06T00:13:42;20.43;;;10.20;;
74170;SDS011;62526;50.948;6.590;2023-04-06T00:16:08;14.27;;;9.40;;
74170;SDS011;62526;50.948;6.590;2023-04-06T00:18:35;20.63;;;11.17;;
74170;SDS011;62526;50.948;6.590;2023-04-06T00:21:03;18.27;;;9.97;;
74170;SDS011;62526;50.948;6.590;2023-04-06T00:23:30;21.43;;;10.80;;
74170;SDS011;62526;50.948;6.590;2023-04-06T00:25:56;22.10;;;10.50;;
74170;SDS011;62526;50.948;6.590;2023-04-06T00:28:23;17.53;;;10.17;;
74170;SDS011;62526;50.948;6.590;2023-04-06T00:30:52;28.63;;;10.23;;
74170;SDS011;62526;50.948;6.590;2023-04-06T00:33:19;17.63;;;9.93;;
74170;SDS011;62526;50.948;6.590;2023-04-06T00:35:45;17.27;;;9.87;;
74170;SDS011;62526;50.948;6.590;2023-04-06T00:38:13;20.00;;;10.47;;
74170;SDS011;62526;50.948;6.590;2023-04-06T00:40:40;21.20;;;10.70;;
74170;SDS011;62526;50.948;6.590;2023-04-06T00:43:07;16.07;;;10.13;;
74170;SDS011;62526;50.948;6.590;2023-04-06T00:45:34;17.03;;;9.80;;
74170;SDS011;62526;50.948;6.590;2023-04-06T00:48:00;15.80;;;9.47;;
74170;SDS011;62526;50.948;6.590;2023-04-06T00:50:27;20.80;;;10.80;;
74170;SDS011;62526;50.948;6.590;2023-04-06T00:52:54;19.33;;;10.27;;
74170;SDS011;62526;50.948;6.590;2023-04-06T00:55:20;19.20;;;9.70;;
74170;SDS011;62526;50.948;6.590;2023-04-06T00:57:47;22.17;;;10.70;;
74170;SDS011;62526;50.948;6.590;2023-04-06T01:00:14;16.13;;;10.27;;
74170;SDS011;62526;50.948;6.590;2023-04-06T01:02:41;16.03;;;10.33;;
74170;SDS011;62526;50.948;6.590;2023-04-06T01:05:07;16.87;;;9.63;;
74170;SDS011;62526;50.948;6.590;2023-04-06T01:07:34;17.20;;;10.93;;
74170;SDS011;62526;50.948;6.590;2023-04-06T01:10:01;17.77;;;10.50;;
74170;SDS011;62526;50.948;6.590;2023-04-06T01:12:27;17.50;;;10.30;;
74170;SDS011;62526;50.948;6.590;2023-04-06T01:14:54;17.93;;;9.80;;
74170;SDS011;62526;50.948;6.590;2023-04-06T01:17:20;18.33;;;10.27;;
74170;SDS011;62526;50.948;6.590;2023-04-06T01:19:47;18.30;;;10.20;;
74170;SDS011;62526;50.948;6.590;2023-04-06T01:22:16;17.73;;;9.37;;
74170;SDS011;62526;50.948;6.590;2023-04-06T01:24:43;19.83;;;10.20;;
74170;SDS011;62526;50.948;6.590;2023-04-06T01:27:09;18.67;;;9.83;;
74170;SDS011;62526;50.948;6.590;2023-04-06T01:29:36;18.10;;;9.60;;
74170;SDS011;62526;50.948;6.590;2023-04-06T01:32:03;14.80;;;10.03;;
74170;SDS011;62526;50.948;6.590;2023-04-06T01:34:29;16.47;;;9.93;;
74170;SDS011;62526;50.948;6.590;2023-04-06T01:36:56;16.83;;;9.57;;
74170;SDS011;62526;50.948;6.590;2023-04-06T01:39:23;21.83;;;10.07;;
74170;SDS011;62526;50.948;6.590;2023-04-06T01:41:49;18.67;;;9.77;;
74170;SDS011;62526;50.948;6.590;2023-04-06T01:44:16;17.30;;;9.13;;
74170;SDS011;62526;50.948;6.590;2023-04-06T01:46:42;17.03;;;9.53;;
74170;SDS011;62526;50.948;6.590;2023-04-06T01:49:09;19.10;;;9.77;;
74170;SDS011;62526;50.948;6.590;2023-04-06T01:51:36;31.87;;;9.63;;
74170;SDS011;62526;50.948;6.590;2023-04-06T01:54:02;17.23;;;9.40;;
74170;SDS011;62526;50.948;6.590;2023-04-06T01:56:29;19.00;;;9.43;;
74170;SDS011;62526;50.948;6.590;2023-04-06T01:58:56;15.90;;;9.60;;
74170;SDS011;62526;50.948;6.590;2023-04-06T02:01:22;15.73;;;9.20;;
74170;SDS011;62526;50.948;6.590;2023-04-06T02:03:49;16.97;;;10.27;;
74170;SDS011;62526;50.948;6.590;2023-04-06T02:06:15;16.43;;;9.20;;
74170;SDS011;62526;50.948;6.590;2023-04-06T02:08:42;20.00;;;9.70;;
74170;SDS011;62526;50.948;6.590;2023-04-06T02:11:09;17.13;;;9.93;;
74170;SDS011;62526;50.948;6.590;2023-04-06T02:13:35;17.23;;;9.40;;
74170;SDS011;62526;50.948;6.590;2023-04-06T02:16:02;19.80;;;9.37;;
74170;SDS011;62526;50.948;6.590;2023-04-06T02:18:30;16.90;;;9.27;;
74170;SDS011;62526;50.948;6.590;2023-04-06T02:20:56;14.63;;;8.77;;
74170;SDS011;62526;50.948;6.590;2023-04-06T02:23:22;15.10;;;9.43;;
74170;SDS011;62526;50.948;6.590;2023-04-06T02:25:49;18.67;;;9.43;;
74170;SDS011;62526;50.948;6.590;2023-04-06T02:28:16;18.40;;;8.90;;
74170;SDS011;62526;50.948;6.590;2023-04-06T02:30:42;19.00;;;9.93;;
74170;SDS011;62526;50.948;6.590;2023-04-06T02:33:09;16.83;;;8.97;;
74170;SDS011;62526;50.948;6.590;2023-04-06T02:35:35;16.37;;;9.00;;
74170;SDS011;62526;50.948;6.590;2023-04-06T02:38:02;19.90;;;9.53;;
74170;SDS011;62526;50.948;6.590;2023-04-06T02:40:29;20.50;;;8.97;;
74170;SDS011;62526;50.948;6.590;2023-04-06T02:42:56;20.63;;;9.10;;
74170;SDS011;62526;50.948;6.590;2023-04-06T02:45:22;14.73;;;9.33;;
74170;SDS011;62526;50.948;6.590;2023-04-06T02:47:49;25.70;;;9.47;;
74170;SDS011;62526;50.948;6.590;2023-04-06T02:50:16;19.07;;;9.90;;
74170;SDS011;62526;50.948;6.590;2023-04-06T02:52:42;16.30;;;9.07;;
74170;SDS011;62526;50.948;6.590;2023-04-06T02:55:09;19.27;;;9.70;;
74170;SDS011;62526;50.948;6.590;2023-04-06T02:57:35;15.50;;;9.53;;
74170;SDS011;62526;50.948;6.590;2023-04-06T03:00:02;20.80;;;9.20;;
74170;SDS011;62526;50.948;6.590;2023-04-06T03:02:29;18.50;;;9.57;;
74170;SDS011;62526;50.948;6.590;2023-04-06T03:04:55;16.37;;;9.53;;
74170;SDS011;62526;50.948;6.590;2023-04-06T03:07:22;17.03;;;9.27;;
74170;SDS011;62526;50.948;6.590;2023-04-06T03:09:49;19.40;;;9.50;;
74170;SDS011;62526;50.948;6.590;2023-04-06T03:12:15;21.60;;;9.40;;
74170;SDS011;62526;50.948;6.590;2023-04-06T03:14:42;17.17;;;8.87;;
74170;SDS011;62526;50.948;6.590;2023-04-06T03:17:08;17.83;;;8.97;;
74170;SDS011;62526;50.948;6.590;2023-04-06T03:19:35;18.20;;;9.53;;
74170;SDS011;62526;50.948;6.590;2023-04-06T03:22:02;16.67;;;9.00;;
74170;SDS011;62526;50.948;6.590;2023-04-06T03:24:28;15.37;;;8.83;;
74170;SDS011;62526;50.948;6.590;2023-04-06T03:26:55;19.00;;;8.87;;
74170;SDS011;62526;50.948;6.590;2023-04-06T03:29:22;24.33;;;9.10;;
74170;SDS011;62526;50.948;6.590;2023-04-06T03:31:48;16.90;;;9.43;;
74170;SDS011;62526;50.948;6.590;2023-04-06T03:34:15;15.27;;;9.23;;
74170;SDS011;62526;50.948;6.590;2023-04-06T03:36:41;19.90;;;10.57;;
74170;SDS011;62526;50.948;6.590;2023-04-06T03:39:08;16.33;;;9.23;;
74170;SDS011;62526;50.948;6.590;2023-04-06T03:41:35;20.57;;;9.70;;
74170;SDS011;62526;50.948;6.590;2023-04-06T03:44:01;22.27;;;9.83;;
74170;SDS011;62526;50.948;6.590;2023-04-06T03:46:28;17.37;;;10.10;;
74170;SDS011;62526;50.948;6.590;2023-04-06T03:48:54;17.03;;;9.23;;
74170;SDS011;62526;50.948;6.590;2023-04-06T03:51:21;33.80;;;10.10;;
74170;SDS011;62526;50.948;6.590;2023-04-06T03:53:48;19.23;;;10.07;;
74170;SDS011;62526;50.948;6.590;2023-04-06T03:56:14;17.77;;;9.87;;
74170;SDS011;62526;50.948;6.590;2023-04-06T03:58:41;21.03;;;9.63;;
74170;SDS011;62526;50.948;6.590;2023-04-06T04:01:07;16.40;;;9.00;;
74170;SDS011;62526;50.948;6.590;2023-04-06T04:03:34;17.90;;;9.70;;
74170;SDS011;62526;50.948;6.590;2023-04-06T04:06:01;20.00;;;9.93;;
74170;SDS011;62526;50.948;6.590;2023-04-06T04:08:27;16.67;;;9.40;;
74170;SDS011;62526;50.948;6.590;2023-04-06T04:10:54;15.10;;;8.60;;
74170;SDS011;62526;50.948;6.590;2023-04-06T04:13:21;19.70;;;9.73;;
74170;SDS011;62526;50.948;6.590;2023-04-06T04:15:47;13.87;;;8.10;;
74170;SDS011;62526;50.948;6.590;2023-04-06T04:18:14;18.87;;;9.37;;
74170;SDS011;62526;50.948;6.590;2023-04-06T04:20:40;21.60;;;9.70;;
74170;SDS011;62526;50.948;6.590;2023-04-06T04:23:07;16.93;;;9.40;;
74170;SDS011;62526;50.948;6.590;2023-04-06T04:25:34;14.13;;;9.13;;
74170;SDS011;62526;50.948;6.590;2023-04-06T04:28:00;15.90;;;9.63;;
74170;SDS011;62526;50.948;6.590;2023-04-06T04:30:27;19.23;;;9.33;;
74170;SDS011;62526;50.948;6.590;2023-04-06T04:32:53;16.37;;;8.67;;
74170;SDS011;62526;50.948;6.590;2023-04-06T04:35:20;22.53;;;9.83;;
74170;SDS011;62526;50.948;6.590;2023-04-06T04:37:47;16.57;;;8.87;;
74170;SDS011;62526;50.948;6.590;2023-04-06T04:40:13;18.83;;;10.07;;
74170;SDS011;62526;50.948;6.590;2023-04-06T04:42:40;22.73;;;12.87;;
74170;SDS011;62526;50.948;6.590;2023-04-06T04:45:07;15.60;;;9.93;;
74170;SDS011;62526;50.948;6.590;2023-04-06T04:47:33;20.63;;;10.17;;
74170;SDS011;62526;50.948;6.590;2023-04-06T04:50:01;15.47;;;8.67;;
74170;SDS011;62526;50.948;6.590;2023-04-06T04:52:28;18.67;;;9.63;;
74170;SDS011;62526;50.948;6.590;2023-04-06T04:54:55;13.90;;;8.63;;
74170;SDS011;62526;50.948;6.590;2023-04-06T04:57:21;14.37;;;8.80;;
74170;SDS011;62526;50.948;6.590;2023-04-06T04:59:48;17.83;;;9.93;;
74170;SDS011;62526;50.948;6.590;2023-04-06T05:02:14;19.47;;;9.40;;
74170;SDS011;62526;50.948;6.590;2023-04-06T05:04:41;17.67;;;9.37;;
74170;SDS011;62526;50.948;6.590;2023-04-06T05:07:08;17.47;;;9.20;;
74170;SDS011;62526;50.948;6.590;2023-04-06T05:09:34;15.73;;;9.37;;
74170;SDS011;62526;50.948;6.590;2023-04-06T05:12:01;16.93;;;9.13;;
74170;SDS011;62526;50.948;6.590;2023-04-06T05:14:28;19.50;;;9.73;;
74170;SDS011;62526;50.948;6.590;2023-04-06T05:16:54;17.50;;;10.00;;
74170;SDS011;62526;50.948;6.590;2023-04-06T05:19:21;16.97;;;9.50;;
74170;SDS011;62526;50.948;6.590;2023-04-06T05:21:47;15.03;;;8.97;;
74170;SDS011;62526;50.948;6.590;2023-04-06T05:24:14;17.43;;;9.63;;
74170;SDS011;62526;50.948;6.590;2023-04-06T05:26:40;19.47;;;9.30;;
74170;SDS011;62526;50.948;6.590;2023-04-06T05:29:07;20.50;;;9.40;;
74170;SDS011;62526;50.948;6.590;2023-04-06T05:31:34;18.40;;;8.93;;
74170;SDS011;62526;50.948;6.590;2023-04-06T05:36:36;17.00;;;9.57;;
74170;SDS011;62526;50.948;6.590;2023-04-06T05:39:02;18.00;;;9.90;;
74170;SDS011;62526;50.948;6.590;2023-04-06T05:41:29;17.00;;;9.97;;
74170;SDS011;62526;50.948;6.590;2023-04-06T05:43:56;17.63;;;9.13;;
74170;SDS011;62526;50.948;6.590;2023-04-06T05:46:22;16.17;;;9.17;;
74170;SDS011;62526;50.948;6.590;2023-04-06T05:48:49;17.13;;;9.27;;
74170;SDS011;62526;50.948;6.590;2023-04-06T05:51:15;16.03;;;9.67;;
74170;SDS011;62526;50.948;6.590;2023-04-06T05:53:42;19.43;;;9.90;;
74170;SDS011;62526;50.948;6.590;2023-04-06T05:56:09;17.80;;;9.27;;
74170;SDS011;62526;50.948;6.590;2023-04-06T05:58:35;19.50;;;10.30;;
74170;SDS011;62526;50.948;6.590;2023-04-06T06:01:02;18.70;;;9.90;;
74170;SDS011;62526;50.948;6.590;2023-04-06T06:03:29;18.33;;;9.77;;
74170;SDS011;62526;50.948;6.590;2023-04-06T06:06:00;15.80;;;9.57;;
74170;SDS011;62526;50.948;6.590;2023-04-06T06:08:27;19.17;;;9.37;;
74170;SDS011;62526;50.948;6.590;2023-04-06T06:10:53;20.73;;;9.53;;
74170;SDS011;62526;50.948;6.590;2023-04-06T06:13:20;15.40;;;9.40;;
74170;SDS011;62526;50.948;6.590;2023-04-06T06:15:46;26.87;;;9.67;;
74170;SDS011;62526;50.948;6.590;2023-04-06T06:18:14;17.13;;;9.07;;
74170;SDS011;62526;50.948;6.590;2023-04-06T06:20:40;13.13;;;7.97;;
74170;SDS011;62526;50.948;6.590;2023-04-06T06:23:07;23.60;;;9.67;;
74170;SDS011;62526;50.948;6.590;2023-04-06T06:25:34;18.07;;;10.07;;
74170;SDS011;62526;50.948;6.590;2023-04-06T06:28:00;12.93;;;8.40;;
74170;SDS011;62526;50.948;6.590;2023-04-06T06:30:27;13.90;;;8.17;;
74170;SDS011;62526;50.948;6.590;2023-04-06T06:32:53;17.47;;;9.23;;
74170;SDS011;62526;50.948;6.590;2023-04-06T06:35:20;17.43;;;8.67;;
74170;SDS011;62526;50.948;6.590;2023-04-06T06:37:47;15.70;;;9.10;;
74170;SDS011;62526;50.948;6.590;2023-04-06T06:40:13;14.93;;;9.93;;
74170;SDS011;62526;50.948;6.590;2023-04-06T06:42:40;15.23;;;9.13;;
74170;SDS011;62526;50.948;6.590;2023-04-06T06:45:07;17.53;;;9.47;;
74170;SDS011;62526;50.948;6.590;2023-04-06T06:47:34;15.43;;;9.07;;
74170;SDS011;62526;50.948;6.590;2023-04-06T06:50:00;16.27;;;8.83;;
74170;SDS011;62526;50.948;6.590;2023-04-06T06:52:28;14.07;;;8.87;;
74170;SDS011;62526;50.948;6.590;2023-04-06T06:54:54;17.93;;;9.37;;
74170;SDS011;62526;50.948;6.590;2023-04-06T06:57:21;20.30;;;10.27;;
74170;SDS011;62526;50.948;6.590;2023-04-06T06:59:48;17.43;;;9.40;;
74170;SDS011;62526;50.948;6.590;2023-04-06T07:02:14;15.20;;;8.83;;
74170;SDS011;62526;50.948;6.590;2023-04-06T07:04:41;17.17;;;9.50;;
74170;SDS011;62526;50.948;6.590;2023-04-06T07:07:08;16.07;;;8.90;;
74170;SDS011;62526;50.948;6.590;2023-04-06T07:09:35;14.47;;;8.40;;
74170;SDS011;62526;50.948;6.590;2023-04-06T07:12:04;13.77;;;8.63;;
74170;SDS011;62526;50.948;6.590;2023-04-06T07:14:30;20.97;;;8.33;;
74170;SDS011;62526;50.948;6.590;2023-04-06T07:16:57;15.73;;;9.07;;
74170;SDS011;62526;50.948;6.590;2023-04-06T07:19:24;17.77;;;9.40;;
74170;SDS011;62526;50.948;6.590;2023-04-06T07:21:52;14.13;;;9.07;;
74170;SDS011;62526;50.948;6.590;2023-04-06T07:24:19;18.47;;;10.93;;
74170;SDS011;62526;50.948;6.590;2023-04-06T07:26:45;18.90;;;9.10;;
74170;SDS011;62526;50.948;6.590;2023-04-06T07:29:12;33.30;;;18.33;;
74170;SDS011;62526;50.948;6.590;2023-04-06T07:31:38;17.50;;;9.63;;
74170;SDS011;62526;50.948;6.590;2023-04-06T07:36:50;16.67;;;9.07;;
74170;SDS011;62526;50.948;6.590;2023-04-06T07:39:16;15.20;;;8.97;;
74170;SDS011;62526;50.948;6.590;2023-04-06T07:41:43;17.73;;;9.70;;
74170;SDS011;62526;50.948;6.590;2023-04-06T07:44:10;15.33;;;8.70;;
74170;SDS011;62526;50.948;6.590;2023-04-06T07:46:37;15.73;;;9.33;;
74170;SDS011;62526;50.948;6.590;2023-04-06T07:49:05;17.37;;;9.87;;
74170;SDS011;62526;50.948;6.590;2023-04-06T07:51:32;15.67;;;9.53;;
74170;SDS011;62526;50.948;6.590;2023-04-06T07:53:59;18.30;;;9.50;;
74170;SDS011;62526;50.948;6.590;2023-04-06T07:56:27;16.10;;;8.70;;
74170;SDS011;62526;50.948;6.590;2023-04-06T07:58:54;18.93;;;9.67;;
74170;SDS011;62526;50.948;6.590;2023-04-06T08:01:21;19.83;;;9.70;;
74170;SDS011;62526;50.948;6.590;2023-04-06T08:03:48;17.03;;;9.67;;
74170;SDS011;62526;50.948;6.590;2023-04-06T08:06:16;17.27;;;8.90;;
74170;SDS011;62526;50.948;6.590;2023-04-06T08:08:42;15.80;;;9.40;;
74170;SDS011;62526;50.948;6.590;2023-04-06T08:11:09;14.97;;;9.60;;
74170;SDS011;62526;50.948;6.590;2023-04-06T08:13:40;17.20;;;9.30;;
74170;SDS011;62526;50.948;6.590;2023-04-06T08:16:07;15.80;;;9.33;;
74170;SDS011;62526;50.948;6.590;2023-04-06T08:18:33;18.77;;;9.30;;
74170;SDS011;62526;50.948;6.590;2023-04-06T08:21:02;14.90;;;9.33;;
74170;SDS011;62526;50.948;6.590;2023-04-06T08:23:28;15.73;;;9.57;;
74170;SDS011;62526;50.948;6.590;2023-04-06T08:25:55;16.27;;;9.87;;
74170;SDS011;62526;50.948;6.590;2023-04-06T08:28:22;16.23;;;9.43;;
74170;SDS011;62526;50.948;6.590;2023-04-06T08:30:48;15.87;;;9.20;;
74170;SDS011;62526;50.948;6.590;2023-04-06T08:33:16;15.87;;;9.10;;
74170;SDS011;62526;50.948;6.590;2023-04-06T08:35:43;16.90;;;9.73;;
74170;SDS011;62526;50.948;6.590;2023-04-06T08:38:09;13.97;;;8.87;;
74170;SDS011;62526;50.948;6.590;2023-04-06T08:40:37;14.40;;;9.60;;
74170;SDS011;62526;50.948;6.590;2023-04-06T08:43:06;19.27;;;9.70;;
74170;SDS011;62526;50.948;6.590;2023-04-06T08:45:32;15.13;;;9.53;;
74170;SDS011;62526;50.948;6.590;2023-04-06T08:47:59;15.40;;;9.53;;
74170;SDS011;62526;50.948;6.590;2023-04-06T08:50:25;15.93;;;10.20;;
74170;SDS011;62526;50.948;6.590;2023-04-06T08:52:52;19.50;;;9.50;;
74170;SDS011;62526;50.948;6.590;2023-04-06T08:55:19;15.30;;;9.43;;
74170;SDS011;62526;50.948;6.590;2023-04-06T08:57:46;18.37;;;9.77;;
74170;SDS011;62526;50.948;6.590;2023-04-06T09:00:13;18.80;;;9.40;;
74170;SDS011;62526;50.948;6.590;2023-04-06T09:02:41;15.53;;;9.90;;
74170;SDS011;62526;50.948;6.590;2023-04-06T09:05:09;18.23;;;9.03;;
74170;SDS011;62526;50.948;6.590;2023-04-06T09:07:39;15.63;;;9.67;;
74170;SDS011;62526;50.948;6.590;2023-04-06T09:10:08;17.58;;;9.57;;
74170;SDS011;62526;50.948;6.590;2023-04-06T09:12:37;19.70;;;9.57;;
74170;SDS011;62526;50.948;6.590;2023-04-06T09:15:05;16.52;;;10.32;;
74170;SDS011;62526;50.948;6.590;2023-04-06T09:17:33;18.70;;;10.40;;
74170;SDS011;62526;50.948;6.590;2023-04-06T09:20:02;17.80;;;9.70;;
74170;SDS011;62526;50.948;6.590;2023-04-06T09:22:36;17.17;;;9.90;;
74170;SDS011;62526;50.948;6.590;2023-04-06T09:25:08;22.40;;;10.57;;
74170;SDS011;62526;50.948;6.590;2023-04-06T09:27:36;15.93;;;9.63;;
74170;SDS011;62526;50.948;6.590;2023-04-06T09:30:07;17.37;;;10.13;;
74170;SDS011;62526;50.948;6.590;2023-04-06T09:35:11;23.37;;;10.03;;
74170;SDS011;62526;50.948;6.590;2023-04-06T09:37:42;19.07;;;9.87;;
74170;SDS011;62526;50.948;6.590;2023-04-06T09:40:13;17.42;;;10.07;;
74170;SDS011;62526;50.948;6.590;2023-04-06T09:42:41;16.75;;;9.80;;
74170;SDS011;62526;50.948;6.590;2023-04-06T09:45:10;17.83;;;10.40;;
74170;SDS011;62526;50.948;6.590;2023-04-06T09:47:37;21.83;;;9.60;;
74170;SDS011;62526;50.948;6.590;2023-04-06T09:50:04;20.73;;;10.15;;
74170;SDS011;62526;50.948;6.590;2023-04-06T09:52:32;18.42;;;9.90;;
74170;SDS011;62526;50.948;6.590;2023-04-06T09:55:01;16.12;;;8.90;;
74170;SDS011;62526;50.948;6.590;2023-04-06T09:57:29;22.95;;;10.48;;
74170;SDS011;62526;50.948;6.590;2023-04-06T10:00:05;20.98;;;9.30;;
74170;SDS011;62526;50.948;6.590;2023-04-06T10:02:48;15.75;;;9.48;;
74170;SDS011;62526;50.948;6.590;2023-04-06T10:10:56;17.20;;;9.50;;
74170;SDS011;62526;50.948;6.590;2023-04-06T10:13:27;22.62;;;9.15;;
74170;SDS011;62526;50.948;6.590;2023-04-06T10:15:54;17.40;;;10.63;;
74170;SDS011;62526;50.948;6.590;2023-04-06T10:18:21;19.27;;;9.65;;
74170;SDS011;62526;50.948;6.590;2023-04-06T10:20:49;16.80;;;10.30;;
74170;SDS011;62526;50.948;6.590;2023-04-06T10:23:24;20.40;;;10.57;;
74170;SDS011;62526;50.948;6.590;2023-04-06T10:25:51;19.25;;;10.05;;
74170;SDS011;62526;50.948;6.590;2023-04-06T10:28:18;16.92;;;9.25;;
74170;SDS011;62526;50.948;6.590;2023-04-06T10:30:45;22.23;;;10.68;;
74170;SDS011;62526;50.948;6.590;2023-04-06T10:33:16;17.70;;;9.52;;
74170;SDS011;62526;50.948;6.590;2023-04-06T10:35:42;22.92;;;9.65;;
74170;SDS011;62526;50.948;6.590;2023-04-06T10:38:08;16.17;;;9.68;;
74170;SDS011;62526;50.948;6.590;2023-04-06T10:40:36;19.25;;;10.10;;
74170;SDS011;62526;50.948;6.590;2023-04-06T10:43:07;19.85;;;9.82;;
74170;SDS011;62526;50.948;6.590;2023-04-06T10:45:33;18.17;;;10.18;;
74170;SDS011;62526;50.948;6.590;2023-04-06T10:48:00;20.62;;;10.15;;
74170;SDS011;62526;50.948;6.590;2023-04-06T10:50:26;16.00;;;7.07;;
74170;SDS011;62526;50.948;6.590;2023-04-06T10:52:59;21.42;;;10.35;;
74170;SDS011;62526;50.948;6.590;2023-04-06T10:55:26;16.02;;;9.00;;
74170;SDS011;62526;50.948;6.590;2023-04-06T10:57:52;18.12;;;9.35;;
74170;SDS011;62526;50.948;6.590;2023-04-06T11:00:19;21.90;;;9.88;;
74170;SDS011;62526;50.948;6.590;2023-04-06T11:02:47;16.75;;;8.27;;
74170;SDS011;62526;50.948;6.590;2023-04-06T11:05:14;23.50;;;9.85;;
74170;SDS011;62526;50.948;6.590;2023-04-06T11:07:40;15.68;;;8.20;;
74170;SDS011;62526;50.948;6.590;2023-04-06T11:10:07;17.23;;;7.78;;
74170;SDS011;62526;50.948;6.590;2023-04-06T11:12:34;20.15;;;9.73;;
74170;SDS011;62526;50.948;6.590;2023-04-06T11:15:01;24.70;;;10.27;;
74170;SDS011;62526;50.948;6.590;2023-04-06T11:17:37;20.12;;;9.90;;
74170;SDS011;62526;50.948;6.590;2023-04-06T11:23:04;20.00;;;9.68;;
74170;SDS011;62526;50.948;6.590;2023-04-06T11:25:49;24.35;;;10.90;;
74170;SDS011;62526;50.948;6.590;2023-04-06T11:28:11;23.20;;;9.40;;
74170;SDS011;62526;50.948;6.590;2023-04-06T11:30:38;10.13;;;6.25;;
74170;SDS011;62526;50.948;6.590;2023-04-06T11:33:04;13.05;;;8.10;;
74170;SDS011;62526;50.948;6.590;2023-04-06T11:35:31;14.52;;;8.35;;
74170;SDS011;62526;50.948;6.590;2023-04-06T11:37:59;15.73;;;8.05;;
74170;SDS011;62526;50.948;6.590;2023-04-06T11:40:27;19.70;;;7.95;;
74170;SDS011;62526;50.948;6.590;2023-04-06T11:42:55;12.02;;;7.10;;
74170;SDS011;62526;50.948;6.590;2023-04-06T11:45:25;15.10;;;7.87;;
74170;SDS011;62526;50.948;6.590;2023-04-06T11:47:55;14.57;;;8.00;;
74170;SDS011;62526;50.948;6.590;2023-04-06T11:50:40;15.68;;;8.45;;
74170;SDS011;62526;50.948;6.590;2023-04-06T11:53:07;12.45;;;7.70;;
74170;SDS011;62526;50.948;6.590;2023-04-06T11:55:38;12.40;;;7.97;;
74170;SDS011;62526;50.948;6.590;2023-04-06T11:58:09;13.45;;;7.55;;
74170;SDS011;62526;50.948;6.590;2023-04-06T12:00:36;13.98;;;7.68;;
74170;SDS011;62526;50.948;6.590;2023-04-06T12:03:04;12.77;;;8.00;;
74170;SDS011;62526;50.948;6.590;2023-04-06T12:05:36;12.00;;;7.45;;
74170;SDS011;62526;50.948;6.590;2023-04-06T12:08:05;10.88;;;6.72;;
74170;SDS011;62526;50.948;6.590;2023-04-06T12:10:32;13.82;;;7.70;;
74170;SDS011;62526;50.948;6.590;2023-04-06T12:13:05;15.02;;;7.97;;
74170;SDS011;62526;50.948;6.590;2023-04-06T12:15:39;13.45;;;8.07;;
74170;SDS011;62526;50.948;6.590;2023-04-06T12:37:21;7.25;;;4.20;;
74170;SDS011;62526;50.948;6.590;2023-04-06T12:48:31;10.48;;;5.40;;
74170;SDS011;62526;50.948;6.590;2023-04-06T17:17:09;13.50;;;8.63;;
74170;SDS011;62526;50.948;6.590;2023-04-06T17:19:38;18.20;;;10.47;;
74170;SDS011;62526;50.948;6.590;2023-04-06T19:01:39;5.00;;;3.63;;
74170;SDS011;62526;50.948;6.590;2023-04-06T19:04:06;4.50;;;3.60;;
74170;SDS011;62526;50.948;6.590;2023-04-06T19:06:33;5.40;;;4.27;;
74170;SDS011;62526;50.948;6.590;2023-04-06T19:09:31;4.63;;;3.80;;
74170;SDS011;62526;50.948;6.590;2023-04-06T19:39:08;5.00;;;3.60;;
74170;SDS011;62526;50.948;6.590;2023-04-06T19:52:30;5.67;;;4.23;;
74170;SDS011;62526;50.948;6.590;2023-04-06T20:16:36;6.40;;;4.27;;
74170;SDS011;62526;50.948;6.590;2023-04-06T20:19:10;6.77;;;4.20;;
74170;SDS011;62526;50.948;6.590;2023-04-06T20:24:29;7.53;;;4.33;;
74170;SDS011;62526;50.948;6.590;2023-04-06T20:26:57;7.47;;;4.50;;
74170;SDS011;62526;50.948;6.590;2023-04-06T20:40:20;7.80;;;4.73;;
74170;SDS011;62526;50.948;6.590;2023-04-06T21:24:14;7.60;;;6.43;;
74170;SDS011;62526;50.948;6.590;2023-04-06T23:00:48;15.03;;;9.53;;
74170;SDS011;62526;50.948;6.590;2023-04-06T23:08:34;15.97;;;10.23;;
74170;SDS011;62526;50.948;6.590;2023-04-06T23:16:16;14.40;;;9.27;;
74170;SDS011;62526;50.948;6.590;2023-04-06T23:18:49;15.10;;;9.30;;
74170;SDS011;62526;50.948;6.590;2023-04-06T23:21:17;14.70;;;9.73;;
74170;SDS011;62526;50.948;6.590;2023-04-06T23:24:06;16.23;;;9.73;;
74170;SDS011;62526;50.948;6.590;2023-04-06T23:26:36;16.83;;;10.03;;
74170;SDS011;62526;50.948;6.590;2023-04-06T23:29:03;16.60;;;10.30;;
